Time;durP1;ratioP1;P1;durP2;ratioP2;P2;SDS_P1;SDS_P2;PMS_P1;PMS_P2;Temp;Humidity;BMP_temperature;BMP_pressure;BME280_temperature;BME280_humidity;BME280_pressure;Samples;Min_cycle;Max_cycle;Signal;HPM_P1;HPM_P2
2021/11/14 00:01:03;;;;;;;136.27;36.33;;;10.20;99.50;;;;;;5032077;28;20029;-79
2021/11/14 00:03:29;;;;;;;;;;;10.20;99.40;;;;;;5036162;28;20026;-79
2021/11/14 00:05:56;;;;;;;240.18;37.88;;;10.20;99.40;;;;;;5040648;28;19913;-79
2021/11/14 00:08:22;;;;;;;259.90;37.83;;;10.20;99.40;;;;;;5050296;28;20037;-79
2021/11/14 00:10:51;;;;;;;103.63;34.45;;;10.20;99.40;;;;;;5040994;28;20123;-79
2021/11/14 00:13:18;;;;;;;123.38;34.30;;;10.20;99.40;;;;;;5050584;28;20025;-79
2021/11/14 00:15:44;;;;;;;219.52;38.70;;;10.20;99.50;;;;;;5046121;28;20048;-79
2021/11/14 00:18:10;;;;;;;231.70;39.65;;;10.20;99.40;;;;;;5040893;28;20083;-80
2021/11/14 00:20:37;;;;;;;189.32;39.22;;;10.20;99.40;;;;;;5050812;28;20029;-79
2021/11/14 00:23:04;;;;;;;199.98;40.15;;;10.20;99.40;;;;;;5032219;28;20029;-79
2021/11/14 00:25:30;;;;;;;132.50;35.50;;;10.20;99.40;;;;;;5034492;28;20636;-80
2021/11/14 00:27:56;;;;;;;114.40;32.85;;;10.20;99.40;;;;;;5042833;28;20057;-80
2021/11/14 00:30:22;;;;;;;294.55;40.60;;;10.20;99.40;;;;;;5009238;28;20030;-79
2021/11/14 00:32:51;;;;;;;122.10;36.28;;;10.20;99.40;;;;;;5054437;28;20041;-79
2021/11/14 00:35:16;;;;;;;;;;;10.20;99.30;;;;;;5050181;28;20052;-79
2021/11/14 00:37:42;;;;;;;269.33;38.65;;;10.20;99.40;;;;;;5052524;28;19916;-79
2021/11/14 00:40:15;;;;;;;193.05;39.85;;;10.20;99.40;;;;;;5018007;28;20022;-79
2021/11/14 00:42:41;;;;;;;233.23;37.88;;;10.20;99.40;;;;;;5040732;28;20017;-79
2021/11/14 00:45:08;;;;;;;132.82;38.03;;;10.20;99.40;;;;;;5040273;28;20066;-80
2021/11/14 00:47:34;;;;;;;161.10;36.53;;;10.20;99.40;;;;;;5044005;28;20033;-79
2021/11/14 00:50:05;;;;;;;188.73;38.25;;;10.20;99.40;;;;;;5034890;28;20663;-80
2021/11/14 00:52:31;;;;;;;191.90;38.35;;;10.20;99.40;;;;;;5023198;28;20037;-80
2021/11/14 00:54:56;;;;;;;199.98;39.17;;;10.20;99.40;;;;;;5010976;28;20038;-79
2021/11/14 00:57:22;;;;;;;116.82;36.83;;;10.20;99.40;;;;;;5041744;28;20036;-79
2021/11/14 00:59:47;;;;;;;125.53;37.22;;;10.20;99.40;;;;;;5034388;28;20497;-79
2021/11/14 01:02:13;;;;;;;171.40;42.50;;;10.20;99.40;;;;;;5049171;28;20068;-80
2021/11/14 01:04:39;;;;;;;108.20;39.63;;;10.20;99.40;;;;;;5031640;28;20029;-80
2021/11/14 01:07:05;;;;;;;165.55;43.00;;;10.20;99.40;;;;;;5008768;28;20431;-79
2021/11/14 01:09:30;;;;;;;117.50;41.83;;;10.20;99.40;;;;;;5052006;28;20482;-80
2021/11/14 01:11:56;;;;;;;300.40;49.65;;;10.20;99.40;;;;;;5031349;28;20063;-80
2021/11/14 01:14:22;;;;;;;345.30;49.70;;;10.20;99.40;;;;;;5036884;28;20413;-80
2021/11/14 01:16:47;;;;;;;105.50;41.80;;;10.20;99.30;;;;;;5002367;28;20032;-80
2021/11/14 01:19:13;;;;;;;161.00;44.65;;;10.20;99.40;;;;;;5022735;28;20037;-79
2021/11/14 01:21:39;;;;;;;113.75;43.13;;;10.20;99.40;;;;;;5046270;28;20482;-80
2021/11/14 01:24:05;;;;;;;123.28;46.55;;;10.20;99.40;;;;;;5000685;28;20036;-80
2021/11/14 01:26:31;;;;;;;96.32;39.80;;;10.10;99.40;;;;;;5025457;28;20018;-80
2021/11/14 01:28:57;;;;;;;107.97;40.50;;;10.20;99.40;;;;;;5022840;28;20021;-80
2021/11/14 01:31:23;;;;;;;117.78;41.70;;;10.10;99.40;;;;;;5044808;28;20032;-79
2021/11/14 01:33:48;;;;;;;283.90;52.53;;;10.20;99.50;;;;;;5034340;28;20379;-80
2021/11/14 01:36:14;;;;;;;115.22;42.95;;;10.10;99.50;;;;;;5012709;28;20033;-79
2021/11/14 01:38:40;;;;;;;138.52;42.97;;;10.10;99.50;;;;;;5049691;28;20883;-79
2021/11/14 01:41:11;;;;;;;145.05;45.47;;;10.20;99.80;;;;;;5026866;28;20875;-79
2021/11/14 01:43:42;;;;;;;171.90;50.80;;;10.20;99.50;;;;;;5025422;28;20032;-80
2021/11/14 01:46:08;;;;;;;176.70;69.20;;;10.20;99.50;;;;;;5045759;28;20017;-80
2021/11/14 01:48:34;;;;;;;154.25;60.80;;;10.20;99.50;;;;;;5054136;28;20386;-80
2021/11/14 01:51:00;;;;;;;142.13;52.95;;;10.10;99.50;;;;;;5051136;28;20691;-80
2021/11/14 01:53:26;;;;;;;146.55;55.72;;;10.10;99.50;;;;;;5051135;28;20033;-79
2021/11/14 01:55:53;;;;;;;168.38;61.28;;;10.10;99.50;;;;;;5003151;28;20359;-79
2021/11/14 01:58:22;;;;;;;197.52;64.32;;;10.10;99.50;;;;;;5029735;28;20508;-79
2021/11/14 02:00:53;;;;;;;162.52;65.78;;;10.10;99.50;;;;;;5038936;28;20437;-79
2021/11/14 02:03:19;;;;;;;182.18;64.93;;;10.10;99.60;;;;;;5037118;28;20793;-79
2021/11/14 02:05:45;;;;;;;144.07;57.00;;;10.10;99.60;;;;;;5035922;28;20033;-79
2021/11/14 02:08:12;;;;;;;145.00;54.75;;;10.10;99.50;;;;;;5053977;28;20087;-80
2021/11/14 02:10:40;;;;;;;144.25;54.58;;;10.10;99.60;;;;;;5049286;28;20022;-80
2021/11/14 02:13:07;;;;;;;181.10;61.28;;;10.10;99.60;;;;;;5049081;28;20044;-79
2021/11/14 02:15:34;;;;;;;152.40;58.15;;;10.10;99.60;;;;;;5052595;28;20025;-79
2021/11/14 02:18:00;;;;;;;200.40;58.45;;;10.10;99.60;;;;;;5041682;28;20466;-79
2021/11/14 02:20:26;;;;;;;164.45;51.70;;;10.10;99.60;;;;;;5049032;28;20036;-80
2021/11/14 02:22:52;;;;;;;183.75;56.35;;;10.10;99.60;;;;;;5016184;28;20395;-80
2021/11/14 02:25:19;;;;;;;221.45;62.55;;;10.10;99.60;;;;;;5048552;28;20139;-80
2021/11/14 02:27:50;;;;;;;138.43;50.28;;;10.10;99.60;;;;;;5048791;28;20022;-80
2021/11/14 02:30:17;;;;;;;167.90;50.25;;;10.10;99.70;;;;;;5046041;28;20028;-80
2021/11/14 02:32:43;;;;;;;160.45;48.28;;;10.10;99.70;;;;;;5023960;28;20124;-80
2021/11/14 02:35:10;;;;;;;182.57;50.85;;;10.00;99.60;;;;;;5040017;28;20546;-80
2021/11/14 02:37:37;;;;;;;148.25;50.08;;;10.10;99.70;;;;;;5045517;28;20082;-80
2021/11/14 02:40:08;;;;;;;141.45;47.65;;;10.10;99.70;;;;;;5033358;28;20026;-80
2021/11/14 02:42:34;;;;;;;135.50;48.13;;;10.10;99.70;;;;;;5047521;28;20040;-80
2021/11/14 02:44:59;;;;;;;171.27;50.95;;;10.10;99.90;;;;;;5043784;28;20045;-79
2021/11/14 02:47:25;;;;;;;154.88;50.47;;;10.10;99.80;;;;;;5048378;28;20553;-79
2021/11/14 02:49:52;;;;;;;142.85;46.83;;;10.10;99.80;;;;;;5043839;28;20035;-80
2021/11/14 02:52:18;;;;;;;135.77;46.20;;;10.10;99.80;;;;;;5000240;28;20513;-79
2021/11/14 02:54:43;;;;;;;152.23;47.55;;;10.00;99.70;;;;;;5044623;28;20037;-79
2021/11/14 02:57:09;;;;;;;132.70;45.05;;;10.10;99.80;;;;;;5021233;28;20120;-80
2021/11/14 02:59:35;;;;;;;142.73;47.03;;;10.00;99.80;;;;;;5015440;28;20440;-80
2021/11/14 03:02:01;;;;;;;121.38;44.17;;;10.10;99.80;;;;;;5022297;28;20491;-80
2021/11/14 03:04:30;;;;;;;163.20;49.38;;;10.00;99.70;;;;;;5020655;28;20502;-80
2021/11/14 03:06:57;;;;;;;140.30;47.08;;;10.00;99.80;;;;;;5034423;28;20466;-79
2021/11/14 03:09:24;;;;;;;160.77;48.30;;;10.00;99.80;;;;;;5008041;28;20458;-80
2021/11/14 03:11:52;;;;;;;152.85;48.28;;;10.00;99.80;;;;;;5040528;28;20428;-80
2021/11/14 03:14:17;;;;;;;165.80;49.58;;;10.00;99.80;;;;;;5014921;28;20114;-79
2021/11/14 03:16:44;;;;;;;151.65;48.72;;;10.00;99.80;;;;;;5022577;28;20219;-80
2021/11/14 03:19:11;;;;;;;153.48;49.65;;;10.00;99.80;;;;;;5047800;28;20017;-79
2021/11/14 03:21:37;;;;;;;153.85;48.85;;;10.00;99.80;;;;;;5049308;28;20475;-80
2021/11/14 03:24:04;;;;;;;159.07;50.25;;;10.00;99.80;;;;;;5035931;28;20078;-79
2021/11/14 03:26:30;;;;;;;140.00;46.17;;;10.00;99.80;;;;;;5049062;28;20036;-80
2021/11/14 03:28:56;;;;;;;137.80;47.58;;;10.00;99.80;;;;;;5040587;28;20355;-80
2021/11/14 03:31:24;;;;;;;145.40;48.22;;;10.00;99.80;;;;;;5019176;28;20167;-80
2021/11/14 03:33:49;;;;;;;173.60;50.00;;;10.00;99.80;;;;;;5037431;28;20510;-79
2021/11/14 03:36:17;;;;;;;190.90;53.78;;;10.00;99.80;;;;;;5043484;28;20021;-79
2021/11/14 03:38:54;;;;;;;138.70;47.95;;;10.00;99.80;;;;;;5026193;28;20108;-79
2021/11/14 03:41:31;;;;;;;131.60;46.38;;;10.00;99.80;;;;;;5044902;28;20108;-80
2021/11/14 03:43:57;;;;;;;164.43;48.15;;;10.00;99.80;;;;;;5041778;28;20486;-80
2021/11/14 03:46:23;;;;;;;157.60;50.17;;;10.00;99.80;;;;;;5043436;28;20032;-79
2021/11/14 03:48:51;;;;;;;152.90;49.70;;;10.00;99.90;;;;;;5042292;28;20032;-79
2021/11/14 03:51:18;;;;;;;169.85;51.05;;;10.00;99.90;;;;;;5022883;28;20045;-79
2021/11/14 03:53:45;;;;;;;148.00;49.67;;;10.00;99.90;;;;;;5043524;28;20029;-79
2021/11/14 03:56:11;;;;;;;134.15;47.50;;;10.00;99.90;;;;;;5047847;28;20082;-80
2021/11/14 03:58:37;;;;;;;136.13;47.55;;;10.00;99.90;;;;;;5020541;28;20036;-79
2021/11/14 04:01:16;;;;;;;145.45;47.08;;;10.10;99.90;;;;;;5029496;28;20021;-79
2021/11/14 04:03:42;;;;;;;143.63;47.65;;;10.00;99.90;;;;;;5042545;28;20068;-80
2021/11/14 04:06:09;;;;;;;154.23;51.20;;;10.00;99.80;;;;;;5042925;28;20090;-80
2021/11/14 04:08:34;;;;;;;172.07;50.33;;;10.00;99.90;;;;;;5030874;28;20092;-79
2021/11/14 04:11:01;;;;;;;145.30;48.88;;;10.10;99.90;;;;;;5012051;28;20802;-79
2021/11/14 04:13:31;;;;;;;139.95;47.42;;;10.00;99.90;;;;;;5024957;28;20121;-80
2021/11/14 04:15:59;;;;;;;151.32;51.08;;;10.10;99.90;;;;;;5038250;28;20029;-79
2021/11/14 04:18:25;;;;;;;151.73;50.25;;;10.10;99.90;;;;;;5021773;28;20052;-80
2021/11/14 04:20:50;;;;;;;135.48;48.35;;;10.10;99.90;;;;;;5033499;28;20037;-80
2021/11/14 04:23:17;;;;;;;140.00;48.00;;;10.10;99.80;;;;;;5048952;28;20025;-80
2021/11/14 04:25:43;;;;;;;144.82;50.63;;;10.00;99.80;;;;;;5034132;28;20037;-80
2021/11/14 04:28:11;;;;;;;125.32;46.67;;;10.10;99.80;;;;;;5033451;28;20029;-80
2021/11/14 04:30:39;;;;;;;137.57;49.83;;;10.10;99.80;;;;;;5037595;28;20382;-80
2021/11/14 04:33:05;;;;;;;137.98;49.33;;;10.10;99.80;;;;;;5053949;28;20560;-80
2021/11/14 04:35:31;;;;;;;139.38;49.10;;;10.10;99.80;;;;;;5037770;28;20088;-80
2021/11/14 04:37:57;;;;;;;111.82;45.15;;;10.00;99.80;;;;;;5055685;28;20029;-79
2021/11/14 04:40:25;;;;;;;113.57;44.22;;;10.00;99.80;;;;;;5043759;28;20379;-79
2021/11/14 04:42:52;;;;;;;118.68;47.30;;;10.10;99.90;;;;;;5055195;28;20079;-79
2021/11/14 04:45:18;;;;;;;125.65;46.53;;;10.10;99.80;;;;;;5030641;28;20025;-80
2021/11/14 04:47:44;;;;;;;104.65;42.80;;;10.10;99.80;;;;;;5048263;28;20025;-80
2021/11/14 04:50:13;;;;;;;121.30;47.75;;;10.10;99.80;;;;;;5046093;28;20393;-79
2021/11/14 04:52:39;;;;;;;130.02;46.13;;;10.10;99.80;;;;;;5034725;28;20036;-79
2021/11/14 04:55:06;;;;;;;138.23;47.67;;;10.00;99.80;;;;;;5024793;28;20041;-79
2021/11/14 04:57:31;;;;;;;109.10;42.35;;;10.10;99.80;;;;;;5033288;28;20138;-79
2021/11/14 04:59:57;;;;;;;110.45;43.50;;;10.00;99.80;;;;;;5049869;28;20061;-80
2021/11/14 05:02:23;;;;;;;130.68;45.30;;;10.00;99.80;;;;;;5018553;28;20146;-79
2021/11/14 05:04:49;;;;;;;120.75;46.40;;;10.00;99.80;;;;;;5048980;28;20486;-80
2021/11/14 05:07:14;;;;;;;113.57;43.60;;;10.10;99.80;;;;;;5024955;28;20094;-79
2021/11/14 05:09:40;;;;;;;132.90;46.72;;;10.10;99.80;;;;;;5042781;28;20041;-80
2021/11/14 05:12:07;;;;;;;113.78;43.88;;;10.00;99.80;;;;;;5037176;28;20032;-80
2021/11/14 05:14:32;;;;;;;105.35;41.53;;;10.00;99.70;;;;;;5033589;28;20063;-80
2021/11/14 05:16:58;;;;;;;104.20;43.08;;;10.00;99.70;;;;;;5028470;28;20481;-79
2021/11/14 05:19:24;;;;;;;137.30;48.30;;;10.00;99.70;;;;;;5044288;28;20044;-79
2021/11/14 05:21:49;;;;;;;113.93;44.92;;;10.00;99.90;;;;;;5040554;28;20027;-79
2021/11/14 05:24:15;;;;;;;115.20;43.63;;;10.00;99.70;;;;;;5009730;28;20060;-80
2021/11/14 05:26:41;;;;;;;103.50;43.40;;;10.00;99.70;;;;;;5042082;28;20413;-80
2021/11/14 05:29:07;;;;;;;114.38;45.17;;;10.00;99.70;;;;;;5022910;28;20035;-80
2021/11/14 05:31:33;;;;;;;92.72;40.92;;;10.00;99.70;;;;;;5023922;28;20106;-80
2021/11/14 05:33:58;;;;;;;102.90;42.67;;;10.00;99.70;;;;;;5052630;28;20135;-79
2021/11/14 05:36:26;;;;;;;123.43;46.92;;;9.90;99.70;;;;;;5036724;28;20052;-79
2021/11/14 05:38:52;;;;;;;99.68;41.97;;;9.90;99.70;;;;;;5024663;28;20485;-79
2021/11/14 05:41:19;;;;;;;120.10;43.88;;;9.90;99.70;;;;;;5030633;28;20033;-79
2021/11/14 05:43:45;;;;;;;115.47;43.92;;;10.00;99.70;;;;;;5054246;28;20029;-79
2021/11/14 05:46:11;;;;;;;100.63;42.45;;;10.00;99.70;;;;;;5048347;28;20116;-80
2021/11/14 05:48:37;;;;;;;103.68;42.42;;;10.00;99.70;;;;;;5048337;28;20096;-80
2021/11/14 05:51:03;;;;;;;91.00;40.10;;;9.90;99.70;;;;;;5033471;28;20518;-79
2021/11/14 05:53:28;;;;;;;99.35;41.80;;;9.90;99.70;;;;;;5052641;28;20024;-80
2021/11/14 05:55:54;;;;;;;95.00;41.13;;;10.00;99.70;;;;;;5022463;28;20048;-79
2021/11/14 06:05:58;;;;;;;97.15;41.17;;;9.90;99.60;;;;;;5054055;28;20731;-80
2021/11/14 06:08:23;;;;;;;94.75;40.78;;;9.90;99.70;;;;;;5016934;28;20029;-79
2021/11/14 06:10:51;;;;;;;106.65;41.33;;;9.90;99.70;;;;;;5051016;28;20037;-79
2021/11/14 06:13:20;;;;;;;94.45;40.97;;;9.90;99.60;;;;;;5047830;28;20037;-80
2021/11/14 06:15:47;;;;;;;102.53;42.13;;;9.90;99.70;;;;;;5043390;28;20047;-80
2021/11/14 06:18:13;;;;;;;104.30;44.33;;;9.90;99.60;;;;;;5042001;28;20083;-80
2021/11/14 06:20:38;;;;;;;99.30;43.58;;;9.90;99.60;;;;;;5039552;28;20029;-79
2021/11/14 06:23:05;;;;;;;87.07;39.22;;;9.90;99.60;;;;;;5044320;28;20022;-80
2021/11/14 06:25:31;;;;;;;93.90;42.85;;;9.90;99.60;;;;;;5048467;28;20021;-79
2021/11/14 06:27:57;;;;;;;100.13;44.00;;;9.90;99.60;;;;;;5035181;28;20036;-79
2021/11/14 06:30:22;;;;;;;90.82;42.45;;;9.90;99.60;;;;;;5016733;28;20081;-80
2021/11/14 06:32:48;;;;;;;92.38;43.50;;;9.90;99.60;;;;;;5045711;28;20095;-80
2021/11/14 06:35:13;;;;;;;81.82;40.53;;;9.90;99.50;;;;;;5048405;28;20053;-79
2021/11/14 06:37:39;;;;;;;79.90;42.30;;;9.90;99.50;;;;;;5044319;28;20040;-79
2021/11/14 06:40:06;;;;;;;80.68;42.38;;;9.80;99.50;;;;;;5027240;28;20024;-79
2021/11/14 06:42:32;;;;;;;82.90;42.35;;;9.90;99.50;;;;;;5046986;28;20760;-78
2021/11/14 06:44:57;;;;;;;79.30;41.38;;;9.80;99.40;;;;;;5021917;28;20032;-80
2021/11/14 06:47:23;;;;;;;89.63;43.72;;;9.80;99.40;;;;;;5033381;28;20438;-80
2021/11/14 06:49:51;;;;;;;88.25;43.10;;;9.80;99.40;;;;;;5021803;28;20112;-80
2021/11/14 06:52:18;;;;;;;77.18;41.03;;;9.80;99.40;;;;;;5018182;28;20047;-79
2021/11/14 06:54:44;;;;;;;82.72;41.90;;;9.80;99.30;;;;;;5035030;28;20035;-79
2021/11/14 06:57:10;;;;;;;81.78;42.38;;;9.70;99.30;;;;;;5053104;28;20044;-79
2021/11/14 06:59:38;;;;;;;89.35;45.33;;;9.70;99.30;;;;;;5042856;28;20051;-79
2021/11/14 07:02:08;;;;;;;80.75;41.63;;;9.70;99.30;;;;;;5020708;28;20059;-79
2021/11/14 07:04:34;;;;;;;77.13;41.97;;;9.70;99.30;;;;;;5034576;28;20033;-79
2021/11/14 07:07:00;;;;;;;83.47;42.70;;;9.70;99.30;;;;;;5034979;28;20116;-79
2021/11/14 07:09:26;;;;;;;92.43;44.88;;;9.70;99.30;;;;;;5053095;28;20716;-79
2021/11/14 07:11:54;;;;;;;86.00;42.97;;;9.70;99.20;;;;;;5052818;28;20028;-79
2021/11/14 07:14:21;;;;;;;89.30;44.28;;;9.70;99.20;;;;;;5035160;28;20080;-79
2021/11/14 07:16:47;;;;;;;89.30;43.00;;;9.60;99.20;;;;;;5018767;28;20025;-79
2021/11/14 07:19:13;;;;;;;88.47;44.60;;;9.60;99.20;;;;;;5047509;28;20374;-80
2021/11/14 07:21:38;;;;;;;93.28;45.45;;;9.60;99.20;;;;;;5033680;28;20375;-80
2021/11/14 07:24:04;;;;;;;98.15;46.13;;;9.60;99.20;;;;;;5047124;28;20041;-80
2021/11/14 07:26:31;;;;;;;101.68;46.72;;;9.60;99.20;;;;;;5023117;28;20041;-80
2021/11/14 07:28:57;;;;;;;113.93;50.47;;;9.60;99.20;;;;;;5022729;28;20040;-78
2021/11/14 07:31:22;;;;;;;100.63;48.67;;;9.60;99.50;;;;;;5051832;28;20385;-78
2021/11/14 07:33:48;;;;;;;109.75;50.67;;;9.50;99.20;;;;;;5042767;28;20059;-78
2021/11/14 07:36:14;;;;;;;113.90;51.50;;;9.50;99.40;;;;;;5017231;28;20047;-78
2021/11/14 07:38:40;;;;;;;111.22;52.15;;;9.50;99.10;;;;;;5034216;28;20033;-78
2021/11/14 07:41:05;;;;;;;122.07;55.17;;;9.50;99.40;;;;;;5031408;28;20029;-78
2021/11/14 07:43:31;;;;;;;115.03;53.47;;;9.50;99.10;;;;;;5029001;28;20030;-78
2021/11/14 07:45:57;;;;;;;118.60;51.45;;;9.50;99.20;;;;;;5048359;28;20029;-78
2021/11/14 07:48:23;;;;;;;108.05;48.85;;;9.40;99.10;;;;;;5039464;28;20439;-78
2021/11/14 07:50:48;;;;;;;99.22;47.83;;;9.40;99.10;;;;;;5049204;28;20061;-78
2021/11/14 07:53:14;;;;;;;92.03;44.75;;;9.40;99.00;;;;;;5025033;28;20030;-78
2021/11/14 07:55:40;;;;;;;98.60;45.50;;;9.40;99.10;;;;;;5047344;28;20029;-78
2021/11/14 07:58:06;;;;;;;83.75;43.72;;;9.40;99.10;;;;;;5026048;28;20447;-79
2021/11/14 08:00:34;;;;;;;99.93;45.33;;;9.40;99.10;;;;;;5020437;28;20485;-79
2021/11/14 08:03:00;;;;;;;97.50;44.75;;;9.40;99.10;;;;;;5028426;28;20426;-78
2021/11/14 08:05:28;;;;;;;101.30;48.35;;;9.40;99.10;;;;;;5033881;28;20025;-78
2021/11/14 08:07:54;;;;;;;113.93;49.95;;;9.30;99.10;;;;;;5053980;28;20482;-79
2021/11/14 08:10:21;;;;;;;108.88;50.40;;;9.40;99.10;;;;;;5037771;28;20127;-78
2021/11/14 08:12:46;;;;;;;102.88;48.85;;;9.40;99.20;;;;;;5037300;28;20453;-77
2021/11/14 08:15:13;;;;;;;109.90;51.17;;;9.40;99.20;;;;;;5026965;28;20033;-78
2021/11/14 08:17:40;;;;;;;113.93;50.08;;;9.40;99.20;;;;;;5037007;28;20033;-78
2021/11/14 08:20:07;;;;;;;117.30;50.17;;;9.40;99.10;;;;;;5048971;28;20018;-78
2021/11/14 08:22:33;;;;;;;105.45;48.95;;;9.40;99.10;;;;;;5049505;28;20025;-78
2021/11/14 08:25:00;;;;;;;104.85;47.10;;;9.40;99.10;;;;;;5053670;28;20036;-78
2021/11/14 08:27:30;;;;;;;125.10;53.42;;;9.40;99.10;;;;;;5047640;28;20034;-79
2021/11/14 08:29:56;;;;;;;113.80;53.60;;;9.50;99.10;;;;;;5050466;28;20052;-80
2021/11/14 08:32:22;;;;;;;110.45;52.22;;;9.50;99.00;;;;;;5044072;28;20034;-79
2021/11/14 08:34:47;;;;;;;109.72;49.83;;;9.50;98.90;;;;;;5048428;28;20180;-78
2021/11/14 08:37:13;;;;;;;106.10;48.17;;;9.50;98.90;;;;;;5041235;28;20890;-80
2021/11/14 08:39:40;;;;;;;98.35;46.80;;;9.40;98.90;;;;;;5025119;28;20061;-79
2021/11/14 08:42:06;;;;;;;99.57;45.70;;;9.50;98.90;;;;;;5041367;28;20120;-79
2021/11/14 08:44:32;;;;;;;100.75;47.10;;;9.50;98.90;;;;;;5026477;28;20025;-78
2021/11/14 08:46:58;;;;;;;104.68;46.67;;;9.50;98.90;;;;;;5029050;28;20051;-75
2021/11/14 08:49:24;;;;;;;96.82;45.00;;;9.50;98.90;;;;;;5041581;28;20065;-76
2021/11/14 08:51:50;;;;;;;90.28;44.92;;;9.50;98.90;;;;;;5013384;28;20029;-76
2021/11/14 08:54:16;;;;;;;103.85;48.17;;;9.50;98.90;;;;;;5012297;28;20038;-76
2021/11/14 08:56:42;;;;;;;94.55;46.15;;;9.50;98.80;;;;;;5039352;28;20056;-76
2021/11/14 08:59:09;;;;;;;109.85;48.55;;;9.50;98.80;;;;;;5026308;28;20075;-76
2021/11/14 09:01:36;;;;;;;103.60;47.60;;;9.50;98.80;;;;;;5027004;28;20505;-76
2021/11/14 09:04:03;;;;;;;106.68;48.05;;;9.50;98.80;;;;;;5035419;28;20715;-76
2021/11/14 09:06:29;;;;;;;102.47;46.65;;;9.50;98.80;;;;;;5030790;28;20025;-76
2021/11/14 09:08:55;;;;;;;100.22;46.10;;;9.50;98.80;;;;;;5037404;28;20025;-76
2021/11/14 09:11:22;;;;;;;100.70;46.65;;;9.50;98.70;;;;;;5031846;28;20037;-78
2021/11/14 09:13:48;;;;;;;97.03;45.65;;;9.40;98.60;;;;;;5047242;28;20032;-76
2021/11/14 09:16:14;;;;;;;96.00;45.00;;;9.40;98.60;;;;;;5008736;28;20040;-76
2021/11/14 09:18:40;;;;;;;98.38;46.28;;;9.40;98.70;;;;;;5042258;28;20033;-76
2021/11/14 09:21:05;;;;;;;97.68;44.25;;;9.40;98.70;;;;;;5012119;28;20025;-76
2021/11/14 09:23:31;;;;;;;89.75;43.85;;;9.40;98.70;;;;;;5025275;28;20167;-76
2021/11/14 09:25:57;;;;;;;96.07;44.38;;;9.40;98.70;;;;;;5042843;28;20040;-75
2021/11/14 09:28:24;;;;;;;92.88;45.30;;;9.40;98.70;;;;;;5033588;28;20040;-74
2021/11/14 09:30:50;;;;;;;94.20;45.78;;;9.40;98.60;;;;;;5040205;28;20111;-76
2021/11/14 09:33:17;;;;;;;98.18;47.78;;;9.40;98.60;;;;;;5031036;28;21566;-75
2021/11/14 09:35:43;;;;;;;101.55;46.92;;;9.40;98.60;;;;;;5032530;28;20049;-76
2021/11/14 09:38:09;;;;;;;92.75;45.60;;;9.40;98.60;;;;;;5038382;28;20039;-76
2021/11/14 09:40:37;;;;;;;99.38;47.17;;;9.40;98.70;;;;;;5039938;28;20029;-76
2021/11/14 09:43:03;;;;;;;102.68;48.47;;;9.40;98.60;;;;;;5019638;28;20041;-76
2021/11/14 09:45:30;;;;;;;98.70;46.60;;;9.50;99.00;;;;;;5041240;28;20040;-76
2021/11/14 09:47:56;;;;;;;102.88;48.63;;;9.50;98.90;;;;;;5018720;28;20115;-75
2021/11/14 09:50:24;;;;;;;105.15;50.10;;;9.50;98.50;;;;;;5038025;28;20036;-76
2021/11/14 09:52:51;;;;;;;108.40;50.42;;;9.40;98.40;;;;;;5040647;28;20025;-76
2021/11/14 09:55:17;;;;;;;116.85;51.40;;;9.40;98.40;;;;;;5024168;28;20025;-76
2021/11/14 09:57:45;;;;;;;170.10;70.57;;;9.40;98.50;;;;;;5026396;28;20549;-76
2021/11/14 10:00:13;;;;;;;130.38;57.13;;;9.40;98.50;;;;;;5043073;28;20025;-75
2021/11/14 10:02:40;;;;;;;105.30;50.47;;;9.50;98.50;;;;;;5045047;28;20083;-78
2021/11/14 10:05:08;;;;;;;110.93;50.42;;;9.50;98.60;;;;;;5026484;28;20480;-77
2021/11/14 10:07:33;;;;;;;97.80;48.28;;;9.60;98.70;;;;;;5044686;28;20474;-78
2021/11/14 10:09:59;;;;;;;103.38;48.70;;;9.70;98.70;;;;;;5033721;28;20028;-79
2021/11/14 10:12:38;;;;;;;106.38;50.90;;;9.80;98.50;;;;;;5047371;28;20052;-77
2021/11/14 10:15:09;;;;;;;107.10;49.38;;;9.80;98.40;;;;;;5048193;28;20040;-78
2021/11/14 10:17:37;;;;;;;103.43;49.22;;;9.90;98.40;;;;;;5034955;28;20116;-78
2021/11/14 10:20:17;;;;;;;104.22;49.53;;;10.00;98.30;;;;;;5050503;28;20524;-79
2021/11/14 10:22:45;;;;;;;96.50;48.30;;;10.00;98.10;;;;;;5049763;28;20024;-77
2021/11/14 10:25:12;;;;;;;101.13;47.45;;;10.10;98.10;;;;;;5036236;28;20021;-78
2021/11/14 10:27:38;;;;;;;104.43;50.85;;;10.10;98.00;;;;;;5035785;28;20144;-78
2021/11/14 10:30:07;;;;;;;106.10;49.60;;;10.10;97.90;;;;;;5018511;28;20037;-78
2021/11/14 10:32:33;;;;;;;;;;;10.10;97.90;;;;;;5034533;28;20496;-78
2021/11/14 10:35:00;;;;;;;100.82;49.45;;;10.10;97.70;;;;;;5047085;28;19921;-78
2021/11/14 10:37:27;;;;;;;97.05;47.30;;;10.10;98.10;;;;;;5030896;28;20049;-79
2021/11/14 10:39:55;;;;;;;93.55;45.22;;;10.10;97.80;;;;;;5033531;28;20037;-80
2021/11/14 10:42:23;;;;;;;93.50;46.67;;;10.10;97.70;;;;;;5015763;28;20025;-79
2021/11/14 10:44:52;;;;;;;94.43;46.40;;;10.20;97.80;;;;;;5046109;28;20421;-80
2021/11/14 10:47:22;;;;;;;86.70;42.25;;;10.20;97.80;;;;;;5039888;28;21886;-80
2021/11/14 10:49:59;;;;;;;86.82;44.08;;;10.30;97.70;;;;;;5052856;28;20020;-79
2021/11/14 10:52:27;;;;;;;84.47;43.40;;;10.40;97.70;;;;;;5025540;28;20035;-78
2021/11/14 10:54:57;;;;;;;89.80;44.95;;;10.50;97.50;;;;;;5030601;28;20029;-78
2021/11/14 10:57:30;;;;;;;79.57;42.15;;;10.50;97.40;;;;;;5035985;28;20025;-80
2021/11/14 10:59:56;;;;;;;87.30;43.17;;;10.50;97.20;;;;;;5033512;28;20036;-80
2021/11/14 11:02:24;;;;;;;76.85;40.40;;;10.50;97.10;;;;;;5043899;28;20060;-80
2021/11/14 11:04:55;;;;;;;81.63;41.28;;;10.40;97.00;;;;;;5047435;28;20055;-80
2021/11/14 11:07:22;;;;;;;78.40;40.60;;;10.40;97.00;;;;;;5019018;28;20064;-80
2021/11/14 11:09:56;;;;;;;79.93;42.17;;;10.40;96.90;;;;;;5047831;28;20026;-80
2021/11/14 11:12:27;;;;;;;74.97;40.97;;;10.50;97.00;;;;;;5026306;28;20029;-80
2021/11/14 11:14:59;;;;;;;85.15;41.88;;;10.70;97.00;;;;;;5032868;28;20036;-80
2021/11/14 11:17:40;;;;;;;84.70;46.60;;;10.70;96.70;;;;;;5015309;28;20036;-80
2021/11/14 11:20:10;;;;;;;80.50;44.10;;;10.90;96.60;;;;;;5052249;28;20024;-80
2021/11/14 11:22:56;;;;;;;77.53;43.38;;;11.00;96.20;;;;;;5046259;28;20501;-80
2021/11/14 11:25:36;;;;;;;72.53;42.05;;;11.10;95.80;;;;;;5024732;28;20052;-80
2021/11/14 11:28:04;;;;;;;73.47;41.33;;;11.10;95.70;;;;;;5023851;28;20112;-80
2021/11/14 11:30:46;;;;;;;69.43;39.57;;;11.10;95.70;;;;;;5034819;28;20032;-80
2021/11/14 11:33:13;;;;;;;67.00;38.65;;;11.10;95.60;;;;;;5052336;28;20359;-80
2021/11/14 11:35:38;;;;;;;62.85;36.85;;;11.00;95.60;;;;;;5034080;28;20056;-80
2021/11/14 11:38:05;;;;;;;63.45;36.53;;;11.00;95.60;;;;;;5045886;28;20479;-80
2021/11/14 11:40:32;;;;;;;58.47;35.00;;;11.00;95.50;;;;;;5017860;28;20033;-80
2021/11/14 11:42:58;;;;;;;57.00;34.33;;;10.90;95.50;;;;;;5047164;28;20025;-80
2021/11/14 11:45:34;;;;;;;54.38;32.55;;;10.80;95.40;;;;;;5038029;28;20044;-80
2021/11/14 11:48:04;;;;;;;49.53;31.50;;;10.70;95.60;;;;;;5043490;28;20033;-80
2021/11/14 11:50:34;;;;;;;48.33;30.88;;;10.70;95.30;;;;;;5040808;28;20033;-80
2021/11/14 11:53:01;;;;;;;43.35;28.33;;;10.60;95.40;;;;;;5043001;28;20029;-80
2021/11/14 11:55:31;;;;;;;46.05;27.98;;;10.60;95.40;;;;;;5034053;28;20025;-81
2021/11/14 11:58:15;;;;;;;42.13;26.63;;;10.70;95.50;;;;;;5026685;28;20055;-81
2021/11/14 12:00:53;;;;;;;39.38;26.13;;;10.80;95.50;;;;;;5014420;28;20389;-82
2021/11/14 12:03:30;;;;;;;38.90;24.27;;;11.10;94.90;;;;;;5040058;28;20057;-82
2021/11/14 12:05:58;;;;;;;39.03;25.45;;;11.30;94.50;;;;;;5045392;28;20037;-81
2021/11/14 12:08:42;;;;;;;52.17;32.23;;;11.30;94.40;;;;;;5034739;28;20071;-80
2021/11/14 12:11:10;;;;;;;57.67;37.33;;;11.20;94.20;;;;;;5052506;28;20028;-80
2021/11/14 12:13:41;;;;;;;62.15;38.45;;;11.10;94.20;;;;;;5047312;28;20386;-82
2021/11/14 12:16:07;;;;;;;70.55;39.22;;;11.00;94.40;;;;;;5015269;28;20041;-81
2021/11/14 12:18:39;;;;;;;69.40;41.25;;;10.90;94.60;;;;;;5010559;28;20033;-81
2021/11/14 12:21:14;;;;;;;71.15;40.33;;;10.90;95.00;;;;;;5033977;28;20021;-81
2021/11/14 12:23:51;;;;;;;67.10;39.80;;;10.90;94.80;;;;;;5029435;28;20057;-82
2021/11/14 12:26:26;;;;;;;67.20;40.20;;;10.80;94.90;;;;;;5043590;28;20032;-81
2021/11/14 12:28:54;;;;;;;62.13;38.03;;;10.80;95.00;;;;;;5032808;28;20039;-84
2021/11/14 12:31:28;;;;;;;66.32;39.70;;;10.80;95.00;;;;;;5029438;28;20501;-80
2021/11/14 12:34:07;;;;;;;57.95;35.35;;;10.80;94.90;;;;;;5030726;28;20056;-79